createdAt,value
2022-08-05T00:00:06.680Z,25.42
2022-08-05T00:05:10.103Z,25.36
2022-08-05T00:10:34.372Z,25.33
2022-08-05T00:15:55.201Z,25.16
2022-08-05T00:21:00.984Z,25.01
2022-08-05T00:26:06.050Z,24.69
2022-08-05T00:31:09.453Z,24.48
2022-08-05T00:36:16.048Z,24.36
2022-08-05T00:41:52.249Z,24.12
2022-08-05T00:47:01.990Z,24.03
2022-08-05T00:52:07.319Z,24.08
2022-08-05T00:57:11.531Z,24.08
2022-08-05T01:02:14.500Z,23.96
2022-08-05T01:07:19.510Z,23.79
2022-08-05T01:12:29.772Z,23.53
2022-08-05T01:17:39.855Z,23.48
2022-08-05T01:22:57.340Z,23.16
2022-08-05T01:28:18.889Z,22.88
2022-08-05T01:33:35.413Z,22.95
2022-08-05T01:38:39.734Z,23.04
2022-08-05T01:43:44.755Z,23.03
2022-08-05T01:48:54.288Z,22.99
2022-08-05T01:53:59.130Z,22.66
2022-08-05T01:59:10.833Z,22.35
2022-08-05T02:04:17.647Z,22.31
2022-08-05T02:09:20.910Z,22.34
2022-08-05T02:14:31.955Z,22.15
2022-08-05T02:19:42.682Z,22.13
2022-08-05T02:24:53.417Z,22.12
2022-08-05T02:30:00.731Z,22.21
2022-08-05T02:35:13.674Z,22.23
2022-08-05T02:40:18.461Z,22.20
2022-08-05T02:45:24.379Z,22.11
2022-08-05T02:50:29.622Z,22.09
2022-08-05T02:55:54.376Z,22.11
2022-08-05T03:01:00.369Z,21.85
2022-08-05T03:06:56.395Z,21.78
2022-08-05T03:11:55.462Z,21.56
2022-08-05T03:16:53.461Z,21.36
2022-08-05T03:21:56.410Z,21.40
2022-08-05T03:27:01.461Z,21.46
2022-08-05T03:32:07.923Z,21.50
2022-08-05T03:37:11.777Z,21.51
2022-08-05T03:42:17.201Z,21.50
2022-08-05T03:47:21.670Z,21.27
2022-08-05T03:52:38.610Z,21.24
2022-08-05T03:57:54.673Z,21.27
2022-08-05T04:03:02.840Z,21.34
2022-08-05T04:08:14.549Z,21.06
2022-08-05T04:13:51.351Z,20.96
2022-08-05T04:18:58.086Z,20.77
2022-08-05T04:24:06.776Z,20.73
2022-08-05T04:29:11.762Z,20.78
2022-08-05T04:34:31.696Z,20.84
2022-08-05T04:39:37.276Z,20.82
2022-08-05T04:44:40.168Z,20.80
2022-08-05T04:50:02.067Z,20.89
2022-08-05T04:55:14.716Z,20.98
2022-08-05T05:00:18.641Z,20.97
2022-08-05T05:05:28.715Z,21.12
2022-08-05T05:10:33.847Z,21.09
2022-08-05T05:15:56.194Z,21.07
2022-08-05T05:21:02.387Z,21.15
2022-08-05T05:26:06.353Z,21.42
2022-08-05T05:31:09.182Z,21.61
2022-08-05T05:36:14.642Z,21.62
2022-08-05T05:41:17.724Z,21.66
2022-08-05T05:46:21.766Z,21.76
2022-08-05T05:51:28.090Z,21.73
2022-08-05T05:56:34.828Z,21.80
2022-08-05T06:01:41.334Z,21.95
2022-08-05T06:07:02.126Z,22.16
2022-08-05T06:12:05.715Z,22.31
2022-08-05T06:17:24.523Z,22.27
2022-08-05T06:22:30.614Z,22.39
2022-08-05T06:28:10.840Z,22.60
2022-08-05T06:32:59.871Z,22.69
2022-08-05T06:38:11.190Z,22.82
2022-08-05T06:43:57.478Z,23.07
2022-08-05T06:48:54.660Z,23.37
2022-08-05T06:54:04.901Z,23.68
2022-08-05T06:59:09.919Z,24.03
2022-08-05T07:04:14.864Z,24.31
2022-08-05T07:09:24.936Z,24.52
2022-08-05T07:14:45.250Z,24.78
2022-08-05T07:20:31.312Z,25.10
2022-08-05T07:25:54.433Z,25.65
2022-08-05T07:30:39.179Z,26.14
2022-08-05T07:36:05.058Z,26.50
2022-08-05T07:42:07.098Z,26.80
2022-08-05T07:46:33.767Z,27.03
2022-08-05T07:51:48.635Z,27.25
2022-08-05T07:57:02.072Z,27.53
2022-08-05T08:02:18.332Z,27.88
2022-08-05T08:07:22.747Z,28.11
2022-08-05T08:12:39.387Z,28.33
2022-08-05T08:17:52.441Z,28.58
2022-08-05T08:22:59.076Z,28.80
2022-08-05T08:28:07.382Z,28.90
2022-08-05T08:33:21.432Z,28.99
2022-08-05T08:38:35.308Z,28.96
2022-08-05T08:45:19.497Z,28.87
2022-08-05T08:50:22.603Z,28.75
2022-08-05T08:54:29.342Z,28.76
2022-08-05T08:59:34.190Z,28.92
2022-08-05T09:04:58.178Z,29.04
2022-08-05T09:10:01.584Z,29.05
2022-08-05T09:15:07.482Z,28.98
2022-08-05T09:20:12.770Z,28.92
2022-08-05T09:26:03.111Z,28.99
2022-08-05T09:30:56.288Z,29.21
2022-08-05T09:36:03.681Z,29.38
2022-08-05T09:41:10.838Z,29.47
2022-08-05T09:46:28.580Z,29.58
2022-08-05T09:51:38.075Z,29.71
2022-08-05T09:56:52.320Z,29.71
2022-08-05T10:01:58.331Z,29.70
2022-08-05T10:07:06.093Z,29.83
2022-08-05T10:12:31.582Z,30.03
2022-08-05T10:17:40.722Z,30.20
2022-08-05T10:22:48.676Z,30.17
2022-08-05T10:28:16.645Z,30.21
2022-08-05T10:33:18.938Z,30.30
2022-08-05T10:38:22.854Z,30.44
2022-08-05T10:43:42.132Z,30.68
2022-08-05T10:48:57.450Z,30.78
2022-08-05T10:54:23.234Z,30.98
2022-08-05T11:00:04.097Z,31.07
2022-08-05T11:04:57.265Z,31.13
2022-08-05T11:10:04.101Z,31.29
2022-08-05T11:16:01.031Z,31.42
2022-08-05T11:20:51.323Z,31.75
2022-08-05T11:26:09.307Z,31.99
2022-08-05T11:31:56.418Z,32.43
2022-08-05T11:37:00.870Z,32.72
2022-08-05T11:42:10.532Z,32.82
2022-08-05T11:47:49.963Z,32.97
2022-08-05T11:52:52.029Z,33.30
2022-08-05T11:58:10.087Z,33.50
2022-08-05T12:03:28.448Z,33.66
2022-08-05T12:08:47.960Z,33.92
2022-08-05T12:13:55.843Z,34.27
2022-08-05T12:19:01.751Z,34.34
2022-08-05T12:24:08.105Z,34.29
2022-08-05T12:29:16.368Z,34.38
2022-08-05T12:34:23.747Z,34.34
2022-08-05T12:39:34.447Z,34.20
2022-08-05T12:44:41.591Z,33.94
2022-08-05T12:50:03.355Z,33.52
2022-08-05T12:55:22.276Z,33.09
2022-08-05T13:02:01.592Z,32.81
2022-08-05T13:05:52.773Z,32.72
2022-08-05T13:11:01.956Z,32.64
2022-08-05T13:16:12.515Z,32.63
2022-08-05T13:21:18.363Z,32.78
2022-08-05T13:26:30.137Z,32.98
2022-08-05T13:31:33.825Z,33.08
2022-08-05T13:36:56.416Z,32.92
2022-08-05T13:42:00.598Z,32.59
2022-08-05T13:47:08.847Z,32.13
2022-08-05T13:52:13.005Z,32.09
2022-08-05T13:57:17.729Z,32.15
2022-08-05T14:02:26.495Z,32.18
2022-08-05T14:08:01.115Z,32.47
2022-08-05T14:12:59.640Z,32.86
2022-08-05T14:18:03.861Z,33.07
2022-08-05T14:23:06.810Z,33.70
2022-08-05T14:28:25.945Z,34.17
2022-08-05T14:33:56.264Z,34.76
2022-08-05T14:38:54.410Z,35.16
2022-08-05T14:44:09.755Z,35.20
2022-08-05T14:49:21.501Z,34.57
2022-08-05T14:54:27.575Z,34.02
2022-08-05T14:59:35.655Z,33.83
2022-08-05T15:04:38.837Z,33.52
2022-08-05T15:09:51.198Z,33.07
2022-08-05T15:14:58.754Z,33.54
2022-08-05T15:20:01.582Z,33.94
2022-08-05T15:25:11.425Z,33.83
2022-08-05T15:30:16.717Z,33.62
2022-08-05T15:35:21.885Z,33.20
2022-08-05T15:40:58.489Z,33.08
2022-08-05T15:46:00.487Z,32.68
2022-08-05T15:51:05.872Z,32.31
2022-08-05T15:56:14.175Z,31.81
2022-08-05T16:01:20.173Z,31.41
2022-08-05T16:06:32.094Z,31.31
2022-08-05T16:11:39.958Z,31.33
2022-08-05T16:16:48.465Z,31.26
2022-08-05T16:22:00.090Z,31.28
2022-08-05T16:27:04.959Z,31.16
2022-08-05T16:32:11.641Z,31.10
2022-08-05T16:38:02.364Z,31.13
2022-08-05T16:42:37.329Z,31.13
2022-08-05T16:47:53.487Z,31.28
2022-08-05T16:53:12.559Z,31.77
2022-08-05T16:58:25.602Z,32.00
2022-08-05T17:03:30.630Z,32.08
2022-08-05T17:08:52.435Z,32.00
2022-08-05T17:14:05.381Z,32.21
2022-08-05T17:19:10.831Z,32.13
2022-08-05T17:24:29.166Z,31.72
2022-08-05T17:29:41.307Z,31.69
2022-08-05T17:34:48.081Z,30.95
2022-08-05T17:39:51.512Z,30.22
2022-08-05T17:44:58.806Z,29.76
2022-08-05T17:50:10.598Z,29.18
2022-08-05T17:55:14.015Z,28.97
2022-08-05T18:00:18.749Z,28.69
2022-08-05T18:05:23.291Z,28.36
2022-08-05T18:10:26.167Z,28.29
2022-08-05T18:15:31.215Z,28.12
2022-08-05T18:20:39.318Z,28.06
2022-08-05T18:25:45.230Z,27.76
2022-08-05T18:30:51.291Z,27.36
2022-08-05T18:36:03.944Z,27.04
2022-08-05T18:41:55.343Z,26.90
2022-08-05T18:46:31.510Z,26.72
2022-08-05T18:52:04.278Z,26.35
2022-08-05T18:57:14.983Z,26.11
2022-08-05T19:02:27.079Z,26.05
2022-08-05T19:07:45.174Z,25.90
2022-08-05T19:12:49.728Z,25.73
2022-08-05T19:18:08.642Z,25.75
2022-08-05T19:24:05.881Z,25.87
2022-08-05T19:28:41.590Z,25.82
2022-08-05T19:33:48.493Z,25.74
2022-08-05T19:39:01.921Z,25.68
2022-08-05T19:44:12.923Z,25.59
2022-08-05T19:49:17.789Z,25.56
2022-08-05T19:54:29.492Z,25.54
2022-08-05T19:59:56.456Z,25.72
2022-08-05T20:04:58.677Z,25.69
2022-08-05T20:10:11.424Z,25.54
2022-08-05T20:15:23.421Z,25.49
2022-08-05T20:20:44.202Z,25.39
2022-08-05T20:25:49.220Z,25.32
2022-08-05T20:30:56.271Z,25.22
2022-08-05T20:35:59.966Z,25.29
2022-08-05T20:41:04.674Z,25.09
2022-08-05T20:46:18.428Z,24.91
2022-08-05T20:51:28.139Z,24.66
2022-08-05T20:56:40.196Z,24.49
2022-08-05T21:01:45.730Z,24.31
2022-08-05T21:06:48.937Z,24.18
2022-08-05T21:12:09.282Z,23.84
2022-08-05T21:17:14.277Z,23.59
2022-08-05T21:22:18.536Z,23.28
2022-08-05T21:27:28.015Z,23.16
2022-08-05T21:32:41.722Z,23.01
2022-08-05T21:37:47.124Z,22.94
2022-08-05T21:42:59.252Z,22.88
2022-08-05T21:48:06.552Z,22.64
2022-08-05T21:53:16.663Z,22.43
2022-08-05T21:58:24.935Z,22.22
2022-08-05T22:03:52.034Z,22.36
2022-08-05T22:08:56.062Z,22.46
2022-08-05T22:14:32.517Z,22.63
2022-08-05T22:20:03.033Z,22.78
2022-08-05T22:25:04.590Z,22.74
2022-08-05T22:30:14.485Z,22.70
2022-08-05T22:35:20.087Z,22.64
2022-08-05T22:40:26.908Z,22.53
2022-08-05T22:45:34.930Z,22.47
2022-08-05T22:50:40.031Z,22.35
2022-08-05T22:55:56.930Z,22.36
2022-08-05T23:01:03.472Z,22.35
2022-08-05T23:06:09.458Z,22.38
2022-08-05T23:11:13.057Z,22.30
2022-08-05T23:16:26.028Z,22.27
2022-08-05T23:21:42.832Z,21.92
2022-08-05T23:26:50.790Z,21.62
2022-08-05T23:31:55.052Z,21.46
2022-08-05T23:36:59.258Z,21.39
2022-08-05T23:42:03.627Z,21.32
2022-08-05T23:47:14.570Z,21.19
2022-08-05T23:52:29.248Z,21.23
2022-08-05T23:57:33.746Z,21.12
